createdAt,value
2016-10-08T00:00:41.308Z,0
2016-10-08T00:01:41.016Z,0
2016-10-08T00:02:41.001Z,0
2016-10-08T00:03:41.032Z,0
2016-10-08T00:04:41.058Z,0
2016-10-08T00:05:41.078Z,0
2016-10-08T00:06:41.081Z,0
2016-10-08T00:07:41.104Z,0
2016-10-08T00:08:41.143Z,0
2016-10-08T00:09:41.143Z,0
2016-10-08T00:10:41.178Z,0
2016-10-08T00:11:41.182Z,0
2016-10-08T00:12:41.177Z,0
2016-10-08T00:13:41.208Z,0
2016-10-08T00:14:41.219Z,0
2016-10-08T00:15:41.239Z,0
2016-10-08T00:16:41.249Z,0
2016-10-08T00:17:41.262Z,0
2016-10-08T00:18:41.283Z,0
2016-10-08T00:19:41.299Z,0
2016-10-08T00:20:41.660Z,0
2016-10-08T00:21:41.330Z,0
2016-10-08T00:22:41.371Z,0
2016-10-08T00:23:41.360Z,0
2016-10-08T00:24:41.392Z,0
2016-10-08T00:25:41.387Z,0
2016-10-08T00:26:41.431Z,0
2016-10-08T00:27:41.452Z,0
2016-10-08T00:28:41.428Z,0
2016-10-08T00:29:41.473Z,0
2016-10-08T00:30:41.487Z,0
2016-10-08T00:31:41.501Z,0
2016-10-08T00:32:41.524Z,0
2016-10-08T00:33:41.515Z,0
2016-10-08T00:34:41.541Z,0
2016-10-08T00:35:41.565Z,0
2016-10-08T00:36:41.591Z,0
2016-10-08T00:37:41.627Z,0
2016-10-08T00:38:41.940Z,0
2016-10-08T00:39:41.645Z,0
2016-10-08T00:40:41.637Z,0
2016-10-08T00:41:41.649Z,0
2016-10-08T00:42:41.673Z,0
2016-10-08T00:43:41.679Z,0
2016-10-08T00:44:41.725Z,0
2016-10-08T00:45:41.728Z,0
2016-10-08T00:46:41.750Z,0
2016-10-08T00:47:41.732Z,0
2016-10-08T00:48:41.821Z,0
2016-10-08T00:49:41.778Z,0
2016-10-08T00:50:41.816Z,0
2016-10-08T00:51:41.808Z,0
2016-10-08T00:52:41.852Z,0
2016-10-08T00:53:41.855Z,0
2016-10-08T00:54:41.881Z,0
2016-10-08T00:55:41.897Z,0
2016-10-08T00:56:41.919Z,0
2016-10-08T00:57:41.898Z,0
2016-10-08T00:58:41.955Z,0
2016-10-08T00:59:41.945Z,0
2016-10-08T01:00:41.981Z,0
2016-10-08T01:01:41.974Z,0
2016-10-08T01:02:41.994Z,0
2016-10-08T01:03:42.017Z,0
2016-10-08T01:04:42.031Z,0
2016-10-08T01:05:42.045Z,0
2016-10-08T01:06:42.072Z,0
2016-10-08T01:07:42.093Z,0
2016-10-08T01:08:42.189Z,0
2016-10-08T01:09:42.411Z,0
2016-10-08T01:10:42.193Z,0
2016-10-08T01:11:42.160Z,0
2016-10-08T01:12:42.267Z,0
2016-10-08T01:13:42.169Z,0
2016-10-08T01:14:42.205Z,0
2016-10-08T01:15:42.219Z,0
2016-10-08T01:16:42.230Z,0
2016-10-08T01:17:42.241Z,0
2016-10-08T01:18:42.259Z,0
2016-10-08T01:19:42.282Z,0
2016-10-08T01:20:42.292Z,0
2016-10-08T01:21:42.296Z,0
2016-10-08T01:22:42.332Z,0
2016-10-08T01:23:42.353Z,0
2016-10-08T01:24:42.360Z,0
2016-10-08T01:25:42.371Z,0
2016-10-08T01:26:42.401Z,0
2016-10-08T01:27:42.394Z,0
2016-10-08T01:28:42.407Z,0
2016-10-08T01:29:42.424Z,0
2016-10-08T01:30:42.452Z,0
2016-10-08T01:31:42.457Z,0
2016-10-08T01:32:42.474Z,0
2016-10-08T01:33:42.498Z,0
2016-10-08T01:34:42.510Z,0
2016-10-08T01:35:42.525Z,0
2016-10-08T01:36:42.549Z,0
2016-10-08T01:37:42.563Z,0
2016-10-08T01:38:42.589Z,0
2016-10-08T01:39:42.579Z,0
2016-10-08T01:40:42.602Z,0
2016-10-08T01:41:42.646Z,0
2016-10-08T01:42:42.647Z,0
2016-10-08T01:43:42.661Z,0
2016-10-08T01:44:42.684Z,0
2016-10-08T01:45:42.681Z,0
2016-10-08T01:46:43.047Z,0
2016-10-08T01:47:42.720Z,0
2016-10-08T01:48:42.736Z,0
2016-10-08T01:49:42.760Z,0
2016-10-08T01:50:42.770Z,0
2016-10-08T01:51:42.794Z,0
2016-10-08T01:52:42.810Z,0
2016-10-08T01:53:42.830Z,0
2016-10-08T01:54:42.862Z,0
2016-10-08T01:55:42.828Z,0
2016-10-08T01:56:42.864Z,0
2016-10-08T01:57:42.879Z,0
2016-10-08T01:58:42.900Z,0
2016-10-08T01:59:42.901Z,0
2016-10-08T02:00:42.936Z,0
2016-10-08T02:01:42.922Z,0
2016-10-08T02:02:42.969Z,0
2016-10-08T02:03:42.960Z,0
2016-10-08T02:04:43.314Z,0
2016-10-08T02:05:42.992Z,0
2016-10-08T02:06:43.028Z,0
2016-10-08T02:07:43.043Z,0
2016-10-08T02:08:43.078Z,0
2016-10-08T02:09:43.081Z,0
2016-10-08T02:10:43.089Z,0
2016-10-08T02:11:43.104Z,0
2016-10-08T02:12:43.134Z,0
2016-10-08T02:13:43.128Z,0
2016-10-08T02:14:43.155Z,0
2016-10-08T02:15:43.171Z,0
2016-10-08T02:16:43.180Z,0
2016-10-08T02:17:43.215Z,0
2016-10-08T02:18:43.241Z,0
2016-10-08T02:19:43.247Z,0
2016-10-08T02:20:43.251Z,0
2016-10-08T02:21:43.280Z,0
2016-10-08T02:22:43.282Z,0
2016-10-08T02:23:43.299Z,0
2016-10-08T02:24:43.338Z,0
2016-10-08T02:25:43.343Z,0
2016-10-08T02:26:43.355Z,0
2016-10-08T02:27:43.354Z,0
2016-10-08T02:28:43.381Z,0
2016-10-08T02:29:43.401Z,0
2016-10-08T02:30:43.415Z,0
2016-10-08T02:31:43.430Z,0
2016-10-08T02:32:43.427Z,0
2016-10-08T02:33:43.470Z,0
2016-10-08T02:34:43.494Z,0
2016-10-08T02:35:43.502Z,0
2016-10-08T02:36:43.515Z,0
2016-10-08T02:37:43.526Z,0
2016-10-08T02:38:43.530Z,0
2016-10-08T02:39:43.558Z,0
2016-10-08T02:40:43.578Z,0
2016-10-08T02:41:43.588Z,0
2016-10-08T02:42:43.596Z,0
2016-10-08T02:43:43.619Z,0
2016-10-08T02:44:43.651Z,0
2016-10-08T02:45:43.637Z,0
2016-10-08T02:46:43.678Z,0
2016-10-08T02:47:43.698Z,0
2016-10-08T02:48:43.702Z,0
2016-10-08T02:49:43.718Z,0
2016-10-08T02:50:43.739Z,0
2016-10-08T02:51:43.738Z,0
2016-10-08T02:52:43.751Z,0
2016-10-08T02:53:43.796Z,0
2016-10-08T02:54:43.806Z,0
2016-10-08T02:55:43.820Z,0
2016-10-08T02:56:43.852Z,0
2016-10-08T02:57:43.849Z,0
2016-10-08T02:58:43.865Z,0
2016-10-08T02:59:43.884Z,0
2016-10-08T03:00:43.896Z,0
2016-10-08T03:01:43.903Z,0
2016-10-08T03:02:43.929Z,0
2016-10-08T03:03:43.938Z,0
2016-10-08T03:04:43.966Z,0
2016-10-08T03:05:43.968Z,0
2016-10-08T03:06:43.997Z,0
2016-10-08T03:07:44.003Z,0
2016-10-08T03:08:44.405Z,0
2016-10-08T03:09:44.028Z,0
2016-10-08T03:10:44.045Z,0
2016-10-08T03:11:44.064Z,0
2016-10-08T03:12:44.100Z,0
2016-10-08T03:13:44.097Z,0
2016-10-08T03:14:44.122Z,0
2016-10-08T03:15:44.131Z,0
2016-10-08T03:16:44.130Z,0
2016-10-08T03:17:44.158Z,0
2016-10-08T03:18:44.182Z,0
2016-10-08T03:19:44.184Z,0
2016-10-08T03:20:44.206Z,0
2016-10-08T03:21:44.209Z,0
2016-10-08T03:22:44.251Z,0
2016-10-08T03:23:44.246Z,0
2016-10-08T03:24:44.265Z,0
2016-10-08T03:25:44.287Z,0
2016-10-08T03:26:44.297Z,0
2016-10-08T03:27:44.304Z,0
2016-10-08T03:28:44.313Z,0
2016-10-08T03:29:44.342Z,0
2016-10-08T03:30:44.358Z,0
2016-10-08T03:31:44.376Z,0
2016-10-08T03:32:44.415Z,0
2016-10-08T03:33:44.393Z,0
2016-10-08T03:34:44.439Z,0
2016-10-08T03:35:44.444Z,0
2016-10-08T03:36:44.469Z,0
2016-10-08T03:37:44.489Z,0
2016-10-08T03:38:44.521Z,0
2016-10-08T03:39:44.492Z,0
2016-10-08T03:40:44.521Z,0
2016-10-08T03:41:44.526Z,0
2016-10-08T03:42:44.524Z,0
2016-10-08T03:43:44.569Z,0
2016-10-08T03:44:44.572Z,0
2016-10-08T03:45:44.600Z,0
2016-10-08T03:46:44.615Z,0
2016-10-08T03:47:44.635Z,0
2016-10-08T03:48:44.659Z,0
2016-10-08T03:49:44.654Z,0
2016-10-08T03:50:44.677Z,0
2016-10-08T03:51:44.690Z,0
2016-10-08T03:52:44.689Z,0
2016-10-08T03:53:44.703Z,0
2016-10-08T03:54:44.741Z,0
2016-10-08T03:55:44.758Z,0
2016-10-08T03:56:44.772Z,0
2016-10-08T03:57:44.796Z,0
2016-10-08T03:58:44.797Z,0
2016-10-08T03:59:44.801Z,0
2016-10-08T04:01:44.856Z,0
2016-10-08T04:02:44.843Z,0
2016-10-08T04:03:44.881Z,0
2016-10-08T04:04:44.897Z,0
2016-10-08T04:05:44.897Z,0
2016-10-08T04:06:44.910Z,0
2016-10-08T04:07:44.939Z,0
2016-10-08T04:08:44.944Z,0
2016-10-08T04:09:44.960Z,0
2016-10-08T04:10:44.982Z,0
2016-10-08T04:11:44.976Z,0
2016-10-08T04:12:45.039Z,0
2016-10-08T04:13:45.021Z,0
2016-10-08T04:14:45.046Z,0
2016-10-08T04:15:45.059Z,0
2016-10-08T04:16:45.059Z,0
2016-10-08T04:17:45.072Z,0
2016-10-08T04:18:45.104Z,0
2016-10-08T04:19:45.121Z,0
2016-10-08T04:20:45.125Z,0
2016-10-08T04:21:45.165Z,0
2016-10-08T04:22:45.193Z,0
2016-10-08T04:23:45.190Z,0
2016-10-08T04:24:45.190Z,0
2016-10-08T04:25:45.207Z,0
2016-10-08T04:26:45.241Z,0
2016-10-08T04:27:45.245Z,0
2016-10-08T04:28:45.259Z,0
2016-10-08T04:29:45.272Z,0
2016-10-08T04:30:45.288Z,0
2016-10-08T04:31:45.293Z,0
2016-10-08T04:32:45.337Z,0
2016-10-08T04:33:45.335Z,0
2016-10-08T04:34:45.358Z,0
2016-10-08T04:35:45.348Z,0
2016-10-08T04:36:45.380Z,0
2016-10-08T04:37:45.394Z,0
2016-10-08T04:38:45.416Z,0
2016-10-08T04:39:45.441Z,0
2016-10-08T04:40:45.456Z,0
2016-10-08T04:41:45.465Z,0
2016-10-08T04:42:45.484Z,0
2016-10-08T04:43:45.486Z,0
2016-10-08T04:44:45.506Z,0
2016-10-08T04:45:45.524Z,0
2016-10-08T04:46:45.537Z,0
2016-10-08T04:47:45.564Z,0
2016-10-08T04:48:45.584Z,0
2016-10-08T04:49:45.582Z,0
2016-10-08T04:50:45.588Z,0
2016-10-08T04:51:45.609Z,0
2016-10-08T04:52:45.957Z,0
2016-10-08T04:53:45.656Z,0
2016-10-08T04:54:45.647Z,0
2016-10-08T04:55:45.687Z,0
2016-10-08T04:56:45.718Z,0
2016-10-08T04:57:45.691Z,0
2016-10-08T04:58:45.727Z,0
2016-10-08T04:59:45.742Z,0
2016-10-08T05:00:45.754Z,0
2016-10-08T05:01:45.769Z,0
2016-10-08T05:02:45.780Z,0
2016-10-08T05:03:45.797Z,0
2016-10-08T05:04:45.812Z,0
2016-10-08T05:05:45.829Z,0
2016-10-08T05:06:45.849Z,0
2016-10-08T05:07:45.863Z,0
2016-10-08T05:08:45.893Z,0
2016-10-08T05:09:45.886Z,0
2016-10-08T05:10:45.912Z,0
2016-10-08T05:11:45.909Z,0
2016-10-08T05:12:45.935Z,0
2016-10-08T05:13:45.950Z,0
2016-10-08T05:14:45.975Z,0
2016-10-08T05:15:46.000Z,0
2016-10-08T05:16:46.013Z,0
2016-10-08T05:17:46.012Z,0
2016-10-08T05:18:46.019Z,0
2016-10-08T05:19:46.060Z,0
2016-10-08T05:20:46.072Z,0
2016-10-08T05:21:46.083Z,0
2016-10-08T05:22:46.080Z,0
2016-10-08T05:23:46.105Z,0
2016-10-08T05:24:46.127Z,0
2016-10-08T05:25:46.142Z,0
2016-10-08T05:26:46.162Z,0
2016-10-08T05:27:46.172Z,0
2016-10-08T05:28:46.188Z,0
2016-10-08T05:29:46.185Z,0
2016-10-08T05:30:46.218Z,0
2016-10-08T05:31:46.242Z,0
2016-10-08T05:32:46.249Z,0
2016-10-08T05:33:46.262Z,0
2016-10-08T05:34:46.280Z,0
2016-10-08T05:35:46.291Z,0
2016-10-08T05:36:46.333Z,0
2016-10-08T05:37:46.321Z,5
2016-10-08T05:38:46.656Z,5
2016-10-08T05:39:46.355Z,5
2016-10-08T05:40:46.370Z,5
2016-10-08T05:41:46.379Z,5
2016-10-08T05:42:46.374Z,5
2016-10-08T05:43:46.419Z,5
2016-10-08T05:44:46.430Z,10
2016-10-08T05:45:46.444Z,10
2016-10-08T05:46:46.437Z,10
2016-10-08T05:47:46.469Z,10
2016-10-08T05:48:46.473Z,10
2016-10-08T05:49:46.507Z,10
2016-10-08T05:50:46.526Z,15
2016-10-08T05:51:46.534Z,15
2016-10-08T05:52:46.544Z,15
2016-10-08T05:53:46.566Z,15
2016-10-08T05:54:46.572Z,15
2016-10-08T05:55:46.590Z,20
2016-10-08T05:56:46.603Z,20
2016-10-08T05:57:46.626Z,20
2016-10-08T05:58:46.653Z,20
2016-10-08T05:59:46.654Z,20
2016-10-08T06:00:46.646Z,25
2016-10-08T06:01:46.679Z,25
2016-10-08T06:02:46.699Z,25
2016-10-08T06:03:46.732Z,25
2016-10-08T06:04:46.730Z,30
2016-10-08T06:05:46.740Z,30
2016-10-08T06:06:46.755Z,30
2016-10-08T06:07:46.774Z,35
2016-10-08T06:08:46.797Z,35
2016-10-08T06:09:46.788Z,35
2016-10-08T06:10:46.823Z,35
2016-10-08T06:11:46.837Z,35
2016-10-08T06:12:46.879Z,40
2016-10-08T06:13:46.865Z,40
2016-10-08T06:14:46.898Z,40
2016-10-08T06:15:46.905Z,40
2016-10-08T06:16:46.924Z,40
2016-10-08T06:17:46.924Z,45
2016-10-08T06:18:46.949Z,45
2016-10-08T06:19:46.968Z,45
2016-10-08T06:20:46.984Z,45
2016-10-08T06:21:46.991Z,50
2016-10-08T06:22:47.004Z,50
2016-10-08T06:23:47.031Z,50
2016-10-08T06:24:47.054Z,50
2016-10-08T06:25:47.051Z,55
2016-10-08T06:26:47.081Z,55
2016-10-08T06:27:47.094Z,55
2016-10-08T06:28:47.094Z,55
2016-10-08T06:29:47.103Z,60
2016-10-08T06:30:47.144Z,60
2016-10-08T06:31:47.152Z,60
2016-10-08T06:32:47.156Z,60
2016-10-08T06:33:47.186Z,65
2016-10-08T06:34:47.178Z,65
2016-10-08T06:35:47.213Z,65
2016-10-08T06:36:47.227Z,65
2016-10-08T06:37:47.239Z,65
2016-10-08T06:38:47.242Z,65
2016-10-08T06:39:47.272Z,65
2016-10-08T06:40:47.289Z,65
2016-10-08T06:41:47.279Z,65
2016-10-08T06:42:47.323Z,65
2016-10-08T06:43:47.340Z,65
2016-10-08T06:44:47.354Z,65
2016-10-08T06:45:47.404Z,65
2016-10-08T06:46:47.366Z,65
2016-10-08T06:47:47.411Z,65
2016-10-08T06:48:47.417Z,65
2016-10-08T06:49:47.402Z,75
2016-10-08T06:50:47.423Z,80
2016-10-08T06:51:47.446Z,80
2016-10-08T06:52:47.464Z,85
2016-10-08T06:53:47.485Z,90
2016-10-08T06:54:47.488Z,95
2016-10-08T06:55:47.502Z,95
2016-10-08T06:56:47.510Z,100
2016-10-08T06:57:47.545Z,100
2016-10-08T06:58:47.538Z,110
2016-10-08T06:59:47.578Z,105
2016-10-08T07:00:47.592Z,105
2016-10-08T07:01:47.602Z,105
2016-10-08T07:02:47.608Z,110
2016-10-08T07:03:47.635Z,110
2016-10-08T07:04:47.653Z,110
2016-10-08T07:05:47.682Z,110
2016-10-08T07:06:47.669Z,115
2016-10-08T07:07:47.700Z,115
2016-10-08T07:08:47.715Z,115
2016-10-08T07:09:47.724Z,115
2016-10-08T07:10:47.745Z,115
2016-10-08T07:11:47.757Z,100
2016-10-08T07:12:47.778Z,100
2016-10-08T07:13:47.780Z,125
2016-10-08T07:14:47.811Z,95
2016-10-08T07:15:47.845Z,95
2016-10-08T07:16:47.851Z,125
2016-10-08T07:17:47.854Z,125
2016-10-08T07:18:47.869Z,125
2016-10-08T07:19:47.884Z,125
2016-10-08T07:20:47.904Z,125
2016-10-08T07:21:47.910Z,130
2016-10-08T07:22:47.949Z,130
2016-10-08T07:23:47.956Z,130
2016-10-08T07:24:47.965Z,130
2016-10-08T07:25:47.990Z,130
2016-10-08T07:26:48.005Z,130
2016-10-08T07:27:48.020Z,130
2016-10-08T07:28:48.019Z,135
2016-10-08T07:29:48.058Z,135
2016-10-08T07:30:48.088Z,135
2016-10-08T07:31:48.071Z,140
2016-10-08T07:32:48.103Z,140
2016-10-08T07:33:48.098Z,140
2016-10-08T07:34:48.131Z,145
2016-10-08T07:35:48.149Z,145
2016-10-08T07:36:48.165Z,145
2016-10-08T07:37:48.168Z,145
2016-10-08T07:38:48.209Z,145
2016-10-08T07:39:48.209Z,145
2016-10-08T07:40:48.234Z,145
2016-10-08T07:41:48.243Z,150
2016-10-08T07:42:48.612Z,120
2016-10-08T07:43:48.276Z,110
2016-10-08T07:44:48.261Z,105
2016-10-08T07:45:48.317Z,110
2016-10-08T07:46:48.334Z,110
2016-10-08T07:47:48.333Z,120
2016-10-08T07:48:48.355Z,135
2016-10-08T07:49:48.371Z,155
2016-10-08T07:50:48.388Z,155
2016-10-08T07:51:48.409Z,155
2016-10-08T07:52:48.427Z,155
2016-10-08T07:53:48.454Z,150
2016-10-08T07:54:48.462Z,125
2016-10-08T07:55:48.473Z,120
2016-10-08T07:56:48.468Z,110
2016-10-08T07:57:48.494Z,110
2016-10-08T07:58:48.515Z,110
2016-10-08T07:59:48.534Z,110
2016-10-08T08:00:48.859Z,110
2016-10-08T08:01:48.567Z,110
2016-10-08T08:02:48.601Z,110
2016-10-08T08:03:48.599Z,110
2016-10-08T08:04:48.628Z,110
2016-10-08T08:05:48.621Z,110
2016-10-08T08:06:48.660Z,105
2016-10-08T08:07:48.676Z,105
2016-10-08T08:08:48.708Z,105
2016-10-08T08:09:48.682Z,105
2016-10-08T08:10:48.721Z,105
2016-10-08T08:11:48.709Z,105
2016-10-08T08:12:48.763Z,100
2016-10-08T08:13:48.782Z,100
2016-10-08T08:14:48.793Z,105
2016-10-08T08:15:48.799Z,105
2016-10-08T08:16:48.819Z,105
2016-10-08T08:17:48.846Z,110
2016-10-08T08:18:48.864Z,110
2016-10-08T08:19:48.871Z,115
2016-10-08T08:20:48.887Z,120
2016-10-08T08:21:48.915Z,125
2016-10-08T08:22:48.923Z,125
2016-10-08T08:23:48.928Z,130
2016-10-08T08:24:48.944Z,135
2016-10-08T08:25:48.969Z,130
2016-10-08T08:26:49.002Z,135
2016-10-08T08:27:49.014Z,135
2016-10-08T08:28:49.338Z,140
2016-10-08T08:29:49.034Z,150
2016-10-08T08:30:49.041Z,140
2016-10-08T08:31:49.064Z,165
2016-10-08T08:32:49.097Z,150
2016-10-08T08:33:49.096Z,140
2016-10-08T08:34:49.128Z,140
2016-10-08T08:35:49.131Z,135
2016-10-08T08:36:49.166Z,135
2016-10-08T08:37:49.174Z,135
2016-10-08T08:38:49.516Z,140
2016-10-08T08:39:49.184Z,140
2016-10-08T08:40:49.225Z,140
2016-10-08T08:41:49.243Z,165
2016-10-08T08:42:49.244Z,165
2016-10-08T08:43:49.252Z,150
2016-10-08T08:44:49.296Z,160
2016-10-08T08:45:49.314Z,165
2016-10-08T08:46:49.315Z,150
2016-10-08T08:47:49.337Z,150
2016-10-08T08:48:49.367Z,145
2016-10-08T08:49:49.352Z,145
2016-10-08T08:50:49.392Z,140
2016-10-08T08:51:49.399Z,140
2016-10-08T08:52:49.412Z,145
2016-10-08T08:53:49.420Z,125
2016-10-08T08:54:49.455Z,130
2016-10-08T08:55:49.496Z,125
2016-10-08T08:56:49.492Z,125
2016-10-08T08:57:49.505Z,125
2016-10-08T08:58:49.533Z,125
2016-10-08T08:59:49.548Z,125
2016-10-08T09:00:49.579Z,120
2016-10-08T09:01:49.550Z,120
2016-10-08T09:02:49.601Z,120
2016-10-08T09:03:49.618Z,120
2016-10-08T09:04:49.610Z,120
2016-10-08T09:05:49.641Z,120
2016-10-08T09:06:49.667Z,120
2016-10-08T09:07:49.657Z,120
2016-10-08T09:08:49.707Z,120
2016-10-08T09:09:49.719Z,115
2016-10-08T09:10:49.728Z,115
2016-10-08T09:11:49.743Z,120
2016-10-08T09:12:49.759Z,120
2016-10-08T09:13:49.773Z,120
2016-10-08T09:14:49.802Z,125
2016-10-08T09:15:49.823Z,125
2016-10-08T09:16:49.828Z,125
2016-10-08T09:17:49.841Z,125
2016-10-08T09:18:49.871Z,125
2016-10-08T09:19:49.873Z,125
2016-10-08T09:20:49.906Z,125
2016-10-08T09:21:49.918Z,130
2016-10-08T09:22:49.940Z,125
2016-10-08T09:23:49.975Z,125
2016-10-08T09:24:49.963Z,120
2016-10-08T09:25:49.999Z,125
2016-10-08T09:26:50.004Z,125
2016-10-08T09:27:50.025Z,125
2016-10-08T09:28:50.045Z,125
2016-10-08T09:29:50.064Z,135
2016-10-08T09:30:50.066Z,130
2016-10-08T09:31:50.110Z,130
2016-10-08T09:32:50.119Z,135
2016-10-08T09:33:50.125Z,140
2016-10-08T09:34:50.156Z,140
2016-10-08T09:35:50.147Z,145
2016-10-08T09:36:50.178Z,155
2016-10-08T09:37:50.189Z,160
2016-10-08T09:38:50.238Z,165
2016-10-08T09:39:50.227Z,170
2016-10-08T09:40:50.233Z,170
2016-10-08T09:41:50.260Z,175
2016-10-08T09:42:50.281Z,170
2016-10-08T09:43:50.292Z,180
2016-10-08T09:44:50.328Z,185
2016-10-08T09:45:50.372Z,180
2016-10-08T09:46:50.380Z,190
2016-10-08T09:47:50.358Z,180
2016-10-08T09:48:50.376Z,190
2016-10-08T09:49:50.402Z,190
2016-10-08T09:50:50.411Z,180
2016-10-08T09:51:50.451Z,175
2016-10-08T09:52:50.464Z,195
2016-10-08T09:53:50.481Z,170
2016-10-08T09:54:50.494Z,165
2016-10-08T09:55:50.497Z,165
2016-10-08T09:56:50.509Z,160
2016-10-08T09:57:50.559Z,165
2016-10-08T09:58:50.568Z,165
2016-10-08T09:59:50.591Z,165
2016-10-08T10:00:50.591Z,165
2016-10-08T10:01:50.623Z,170
2016-10-08T10:02:50.630Z,170
2016-10-08T10:03:50.642Z,175
2016-10-08T10:04:50.672Z,170
2016-10-08T10:05:50.692Z,190
2016-10-08T10:06:50.708Z,205
2016-10-08T10:07:50.734Z,210
2016-10-08T10:08:50.767Z,245
2016-10-08T10:09:50.728Z,200
2016-10-08T10:10:50.775Z,195
2016-10-08T10:11:50.791Z,210
2016-10-08T10:12:50.799Z,230
2016-10-08T10:13:50.819Z,185
2016-10-08T10:14:50.864Z,170
2016-10-08T10:15:50.873Z,195
2016-10-08T10:16:50.881Z,185
2016-10-08T10:17:50.905Z,170
2016-10-08T10:18:50.932Z,145
2016-10-08T10:19:54.371Z,145
2016-10-08T10:20:50.972Z,145
2016-10-08T10:21:50.979Z,160
2016-10-08T10:22:51.006Z,210
2016-10-08T10:23:51.012Z,215
2016-10-08T10:24:51.039Z,220
2016-10-08T10:25:51.049Z,220
2016-10-08T10:26:51.078Z,225
2016-10-08T10:27:51.088Z,225
2016-10-08T10:28:51.098Z,240
2016-10-08T10:29:51.103Z,235
2016-10-08T10:30:51.130Z,230
2016-10-08T10:31:51.151Z,235
2016-10-08T10:32:51.163Z,240
2016-10-08T10:33:51.199Z,245
2016-10-08T10:34:51.220Z,220
2016-10-08T10:35:51.220Z,270
2016-10-08T10:36:51.252Z,285
2016-10-08T10:37:51.250Z,285
2016-10-08T10:38:51.289Z,280
2016-10-08T10:39:51.302Z,265
2016-10-08T10:40:51.331Z,250
2016-10-08T10:41:51.331Z,235
2016-10-08T10:42:51.366Z,225
2016-10-08T10:43:51.364Z,215
2016-10-08T10:44:51.390Z,215
2016-10-08T10:45:51.397Z,210
2016-10-08T10:46:51.421Z,205
2016-10-08T10:47:51.454Z,200
2016-10-08T10:48:51.814Z,165
2016-10-08T10:49:51.505Z,145
2016-10-08T10:50:51.483Z,150
2016-10-08T10:51:51.528Z,160
2016-10-08T10:52:51.540Z,165
2016-10-08T10:53:51.553Z,170
2016-10-08T10:54:51.587Z,170
2016-10-08T10:55:51.580Z,175
2016-10-08T10:56:51.595Z,170
2016-10-08T10:57:51.621Z,170
2016-10-08T10:58:51.662Z,170
2016-10-08T10:59:51.672Z,175
2016-10-08T11:00:51.691Z,175
2016-10-08T11:01:51.696Z,175
2016-10-08T11:02:52.059Z,170
2016-10-08T11:03:51.733Z,155
2016-10-08T11:04:51.760Z,145
2016-10-08T11:05:51.781Z,135
2016-10-08T11:06:51.826Z,140
2016-10-08T11:07:51.803Z,135
2016-10-08T11:08:51.845Z,130
2016-10-08T11:09:51.853Z,130
2016-10-08T11:10:51.870Z,130
2016-10-08T11:11:51.898Z,130
2016-10-08T11:12:51.916Z,130
2016-10-08T11:13:51.911Z,135
2016-10-08T11:14:51.934Z,140
2016-10-08T11:15:51.967Z,140
2016-10-08T11:16:51.997Z,140
2016-10-08T11:17:51.999Z,140
2016-10-08T11:18:52.029Z,140
2016-10-08T11:19:52.045Z,140
2016-10-08T11:20:52.051Z,140
2016-10-08T11:21:52.083Z,140
2016-10-08T11:22:52.098Z,145
2016-10-08T11:23:52.117Z,145
2016-10-08T11:24:52.131Z,145
2016-10-08T11:25:52.156Z,140
2016-10-08T11:26:52.165Z,140
2016-10-08T11:27:52.200Z,140
2016-10-08T11:28:52.214Z,145
2016-10-08T11:29:52.231Z,145
2016-10-08T11:30:52.228Z,140
2016-10-08T11:31:52.248Z,140
2016-10-08T11:32:52.294Z,140
2016-10-08T11:33:52.290Z,140
2016-10-08T11:34:52.312Z,140
2016-10-08T11:35:52.338Z,140
2016-10-08T11:36:52.345Z,140
2016-10-08T11:37:52.396Z,140
2016-10-08T11:38:52.412Z,140
2016-10-08T11:39:52.400Z,140
2016-10-08T11:40:52.404Z,140
2016-10-08T11:41:52.436Z,145
2016-10-08T11:42:52.435Z,145
2016-10-08T11:43:52.458Z,150
2016-10-08T11:44:52.498Z,150
2016-10-08T11:45:52.492Z,150
2016-10-08T11:46:52.534Z,150
2016-10-08T11:47:52.530Z,150
2016-10-08T11:48:52.606Z,155
2016-10-08T11:49:52.594Z,160
2016-10-08T11:50:52.597Z,155
2016-10-08T11:51:52.612Z,155
2016-10-08T11:52:52.624Z,160
2016-10-08T11:53:52.654Z,160
2016-10-08T11:54:52.662Z,165
2016-10-08T11:55:52.696Z,165
2016-10-08T11:56:53.027Z,165
2016-10-08T11:57:52.729Z,170
2016-10-08T11:58:52.717Z,170
2016-10-08T11:59:52.745Z,170
2016-10-08T12:00:52.983Z,170
2016-10-08T12:01:52.840Z,170
2016-10-08T12:02:52.839Z,170
2016-10-08T12:03:52.811Z,165
2016-10-08T12:04:52.841Z,170
2016-10-08T12:05:52.859Z,165
2016-10-08T12:06:52.875Z,170
2016-10-08T12:07:52.924Z,195
2016-10-08T12:08:52.892Z,175
2016-10-08T12:09:52.923Z,170
2016-10-08T12:10:52.943Z,170
2016-10-08T12:11:52.968Z,170
2016-10-08T12:12:52.955Z,170
2016-10-08T12:13:52.983Z,175
2016-10-08T12:14:53.035Z,175
2016-10-08T12:15:53.031Z,170
2016-10-08T12:16:53.068Z,170
2016-10-08T12:17:53.063Z,165
2016-10-08T12:18:53.110Z,160
2016-10-08T12:19:53.117Z,150
2016-10-08T12:20:53.132Z,145
2016-10-08T12:21:53.147Z,140
2016-10-08T12:22:53.178Z,135
2016-10-08T12:23:53.175Z,130
2016-10-08T12:24:53.211Z,125
2016-10-08T12:25:53.231Z,120
2016-10-08T12:26:53.235Z,115
2016-10-08T12:27:53.260Z,105
2016-10-08T12:28:53.284Z,100
2016-10-08T12:29:53.285Z,95
2016-10-08T12:30:53.640Z,90
2016-10-08T12:31:53.310Z,85
2016-10-08T12:32:53.365Z,85
2016-10-08T12:33:53.384Z,85
2016-10-08T12:34:53.366Z,80
2016-10-08T12:35:53.388Z,80
2016-10-08T12:36:53.421Z,80
2016-10-08T12:37:53.429Z,85
2016-10-08T12:38:53.499Z,85
2016-10-08T12:39:55.723Z,85
2016-10-08T12:40:53.481Z,85
2016-10-08T12:41:53.512Z,85
2016-10-08T12:42:53.542Z,85
2016-10-08T12:43:53.557Z,85
2016-10-08T12:44:53.577Z,90
2016-10-08T12:45:53.604Z,90
2016-10-08T12:47:08.446Z,95
2016-10-08T12:47:53.598Z,95
2016-10-08T12:48:53.628Z,95
2016-10-08T12:49:53.644Z,95
2016-10-08T12:50:53.692Z,95
2016-10-08T12:51:53.690Z,95
2016-10-08T12:52:53.716Z,95
2016-10-08T12:53:53.727Z,100
2016-10-08T12:54:53.729Z,100
2016-10-08T12:55:53.751Z,105
2016-10-08T12:56:53.780Z,105
2016-10-08T12:57:53.814Z,105
2016-10-08T12:58:53.809Z,110
2016-10-08T12:59:53.832Z,110
2016-10-08T13:00:53.843Z,110
2016-10-08T13:01:53.880Z,115
2016-10-08T13:02:53.860Z,115
2016-10-08T13:03:53.902Z,115
2016-10-08T13:04:53.942Z,120
2016-10-08T13:05:53.962Z,120
2016-10-08T13:06:53.965Z,120
2016-10-08T13:07:53.988Z,120
2016-10-08T13:08:54.000Z,120
2016-10-08T13:09:54.000Z,120
2016-10-08T13:10:54.027Z,125
2016-10-08T13:11:54.059Z,125
2016-10-08T13:12:54.067Z,125
2016-10-08T13:13:54.087Z,125
2016-10-08T13:14:54.106Z,125
2016-10-08T13:15:54.121Z,125
2016-10-08T13:16:54.127Z,130
2016-10-08T13:17:54.150Z,130
2016-10-08T13:18:54.170Z,130
2016-10-08T13:19:54.189Z,135
2016-10-08T13:20:54.209Z,135
2016-10-08T13:21:54.224Z,135
2016-10-08T13:22:54.245Z,130
2016-10-08T13:23:54.281Z,130
2016-10-08T13:24:54.283Z,130
2016-10-08T13:25:54.279Z,130
2016-10-08T13:26:54.306Z,135
2016-10-08T13:27:54.349Z,135
2016-10-08T13:28:54.352Z,135
2016-10-08T13:29:54.394Z,135
2016-10-08T13:30:54.394Z,135
2016-10-08T13:31:54.412Z,135
2016-10-08T13:32:54.417Z,135
2016-10-08T13:33:54.451Z,135
2016-10-08T13:34:54.509Z,140
2016-10-08T13:35:54.525Z,140
2016-10-08T13:36:54.552Z,140
2016-10-08T13:37:54.567Z,145
2016-10-08T13:38:54.566Z,145
2016-10-08T13:39:54.568Z,145
2016-10-08T13:40:54.578Z,145
2016-10-08T13:41:54.593Z,150
2016-10-08T13:42:54.609Z,145
2016-10-08T13:43:54.627Z,150
2016-10-08T13:44:54.637Z,145
2016-10-08T13:45:54.653Z,140
2016-10-08T13:46:54.672Z,135
2016-10-08T13:47:54.715Z,135
2016-10-08T13:48:54.717Z,135
2016-10-08T13:49:54.733Z,140
2016-10-08T13:50:54.775Z,150
2016-10-08T13:51:54.766Z,135
2016-10-08T13:52:54.776Z,130
2016-10-08T13:53:54.794Z,130
2016-10-08T13:54:54.821Z,135
2016-10-08T13:55:54.826Z,145
2016-10-08T13:56:54.849Z,175
2016-10-08T13:57:54.896Z,170
2016-10-08T13:58:54.890Z,135
2016-10-08T13:59:54.899Z,130
2016-10-08T14:00:54.951Z,130
2016-10-08T14:01:54.936Z,160
2016-10-08T14:02:54.965Z,165
2016-10-08T14:03:54.976Z,165
2016-10-08T14:04:54.989Z,165
2016-10-08T14:05:55.014Z,165
2016-10-08T14:06:55.043Z,160
2016-10-08T14:07:55.044Z,160
2016-10-08T14:08:55.063Z,160
2016-10-08T14:09:55.084Z,155
2016-10-08T14:10:55.102Z,155
2016-10-08T14:11:55.134Z,155
2016-10-08T14:12:55.130Z,150
2016-10-08T14:13:55.147Z,145
2016-10-08T14:14:55.191Z,145